sensor_id;sensor_type;location;lat;lon;timestamp;pressure;altitude;pressure_sealevel;temperature;humidity
38612;BME280;24368;52.156;20.788;2023-02-18T00:02:31;99420.48;;;7.17;98.25
38612;BME280;24368;52.156;20.788;2023-02-18T00:07:37;99433.58;;;6.96;98.35
38612;BME280;24368;52.156;20.788;2023-02-18T00:12:40;99431.91;;;6.80;98.48
38612;BME280;24368;52.156;20.788;2023-02-18T00:17:42;99443.86;;;6.85;95.91
38612;BME280;24368;52.156;20.788;2023-02-18T00:22:43;99458.75;;;6.83;94.69
38612;BME280;24368;52.156;20.788;2023-02-18T00:27:45;99442.48;;;6.79;93.67
38612;BME280;24368;52.156;20.788;2023-02-18T00:32:47;99436.52;;;6.84;92.17
38612;BME280;24368;52.156;20.788;2023-02-18T00:37:51;99430.84;;;6.75;93.45
38612;BME280;24368;52.156;20.788;2023-02-18T00:42:53;99459.58;;;6.75;92.53
38612;BME280;24368;52.156;20.788;2023-02-18T00:47:55;99458.71;;;6.55;94.70
38612;BME280;24368;52.156;20.788;2023-02-18T00:52:57;99456.71;;;6.59;93.26
38612;BME280;24368;52.156;20.788;2023-02-18T00:57:58;99455.02;;;6.44;95.79
38612;BME280;24368;52.156;20.788;2023-02-18T01:03:00;99446.31;;;6.42;96.32
38612;BME280;24368;52.156;20.788;2023-02-18T01:08:03;99469.64;;;6.48;93.83
38612;BME280;24368;52.156;20.788;2023-02-18T01:13:05;99453.93;;;6.39;94.92
38612;BME280;24368;52.156;20.788;2023-02-18T01:18:07;99461.34;;;6.42;94.36
38612;BME280;24368;52.156;20.788;2023-02-18T01:23:11;99462.39;;;6.40;95.33
38612;BME280;24368;52.156;20.788;2023-02-18T01:28:14;99449.69;;;6.38;95.26
38612;BME280;24368;52.156;20.788;2023-02-18T01:33:16;99440.96;;;6.37;95.29
38612;BME280;24368;52.156;20.788;2023-02-18T01:38:17;99444.75;;;6.29;96.32
38612;BME280;24368;52.156;20.788;2023-02-18T01:43:20;99432.82;;;6.30;95.76
38612;BME280;24368;52.156;20.788;2023-02-18T01:48:45;99440.79;;;6.30;94.76
38612;BME280;24368;52.156;20.788;2023-02-18T01:53:53;99439.39;;;6.31;93.92
38612;BME280;24368;52.156;20.788;2023-02-18T01:58:59;99441.52;;;6.23;94.77
38612;BME280;24368;52.156;20.788;2023-02-18T02:04:02;99447.34;;;6.23;94.73
38612;BME280;24368;52.156;20.788;2023-02-18T02:09:07;99440.59;;;6.16;95.38
38612;BME280;24368;52.156;20.788;2023-02-18T02:25:09;99446.85;;;6.05;95.71
38612;BME280;24368;52.156;20.788;2023-02-18T02:46:42;99466.66;;;5.79;96.68
38612;BME280;24368;52.156;20.788;2023-02-18T03:13:36;99485.64;;;5.57;96.92
38612;BME280;24368;52.156;20.788;2023-02-18T03:24:09;99492.56;;;5.49;96.75
38612;BME280;24368;52.156;20.788;2023-02-18T03:29:15;99486.65;;;5.45;97.25
38612;BME280;24368;52.156;20.788;2023-02-18T03:34:30;99491.02;;;5.37;97.44
38612;BME280;24368;52.156;20.788;2023-02-18T03:39:36;99502.91;;;5.32;97.92
38612;BME280;24368;52.156;20.788;2023-02-18T03:44:39;99506.77;;;5.26;98.32
38612;BME280;24368;52.156;20.788;2023-02-18T03:49:41;99511.55;;;5.15;99.25
38612;BME280;24368;52.156;20.788;2023-02-18T03:54:43;99519.53;;;5.12;98.99
38612;BME280;24368;52.156;20.788;2023-02-18T03:59:45;99529.32;;;5.06;98.91
38612;BME280;24368;52.156;20.788;2023-02-18T04:04:47;99520.63;;;5.06;98.53
38612;BME280;24368;52.156;20.788;2023-02-18T04:09:48;99532.40;;;5.05;98.15
38612;BME280;24368;52.156;20.788;2023-02-18T04:14:50;99526.03;;;4.98;98.83
38612;BME280;24368;52.156;20.788;2023-02-18T04:19:52;99519.67;;;4.91;99.48
38612;BME280;24368;52.156;20.788;2023-02-18T04:24:54;99523.59;;;4.90;99.37
38612;BME280;24368;52.156;20.788;2023-02-18T04:29:55;99536.36;;;4.96;97.47
38612;BME280;24368;52.156;20.788;2023-02-18T04:34:57;99527.54;;;4.91;97.93
38612;BME280;24368;52.156;20.788;2023-02-18T04:39:59;99531.67;;;4.86;98.04
38612;BME280;24368;52.156;20.788;2023-02-18T04:45:01;99548.56;;;4.88;97.43
38612;BME280;24368;52.156;20.788;2023-02-18T04:50:04;99533.35;;;4.90;97.54
38612;BME280;24368;52.156;20.788;2023-02-18T04:55:06;99520.36;;;4.87;97.56
38612;BME280;24368;52.156;20.788;2023-02-18T05:00:10;99524.45;;;4.83;97.65
38612;BME280;24368;52.156;20.788;2023-02-18T05:05:14;99522.05;;;4.82;97.10
38612;BME280;24368;52.156;20.788;2023-02-18T05:10:17;99526.85;;;4.80;96.98
38612;BME280;24368;52.156;20.788;2023-02-18T05:15:19;99534.70;;;4.78;97.11
38612;BME280;24368;52.156;20.788;2023-02-18T05:20:21;99523.20;;;4.75;97.40
38612;BME280;24368;52.156;20.788;2023-02-18T05:25:22;99540.79;;;4.78;96.95
38612;BME280;24368;52.156;20.788;2023-02-18T05:30:24;99553.77;;;4.80;96.93
38612;BME280;24368;52.156;20.788;2023-02-18T05:35:26;99556.52;;;4.91;96.87
38612;BME280;24368;52.156;20.788;2023-02-18T05:40:28;99560.33;;;4.91;97.07
38612;BME280;24368;52.156;20.788;2023-02-18T05:45:29;99573.69;;;4.88;97.22
38612;BME280;24368;52.156;20.788;2023-02-18T05:50:32;99560.90;;;4.85;96.97
38612;BME280;24368;52.156;20.788;2023-02-18T05:55:33;99561.14;;;4.75;98.08
38612;BME280;24368;52.156;20.788;2023-02-18T06:00:39;99570.67;;;4.73;97.86
38612;BME280;24368;52.156;20.788;2023-02-18T06:05:41;99562.56;;;4.74;97.83
38612;BME280;24368;52.156;20.788;2023-02-18T06:10:43;99589.27;;;4.82;96.42
38612;BME280;24368;52.156;20.788;2023-02-18T06:15:44;99609.16;;;4.82;96.25
38612;BME280;24368;52.156;20.788;2023-02-18T06:20:47;99610.34;;;4.86;96.00
38612;BME280;24368;52.156;20.788;2023-02-18T06:25:49;99616.11;;;4.83;96.87
38612;BME280;24368;52.156;20.788;2023-02-18T06:30:51;99629.91;;;4.84;96.62
38612;BME280;24368;52.156;20.788;2023-02-18T06:36:02;99622.08;;;4.82;97.22
38612;BME280;24368;52.156;20.788;2023-02-18T06:41:08;99640.71;;;4.83;97.43
38612;BME280;24368;52.156;20.788;2023-02-18T06:46:10;99633.98;;;4.87;96.46
38612;BME280;24368;52.156;20.788;2023-02-18T06:51:12;99636.81;;;4.89;96.20
38612;BME280;24368;52.156;20.788;2023-02-18T06:56:14;99650.38;;;4.92;96.53
38612;BME280;24368;52.156;20.788;2023-02-18T07:01:15;99659.00;;;4.91;96.40
38612;BME280;24368;52.156;20.788;2023-02-18T07:06:17;99656.60;;;4.90;97.43
38612;BME280;24368;52.156;20.788;2023-02-18T07:11:19;99671.39;;;4.87;98.17
38612;BME280;24368;52.156;20.788;2023-02-18T07:16:21;99661.83;;;4.87;98.05
38612;BME280;24368;52.156;20.788;2023-02-18T07:21:22;99674.38;;;4.93;97.73
38612;BME280;24368;52.156;20.788;2023-02-18T07:26:24;99663.69;;;4.93;97.55
38612;BME280;24368;52.156;20.788;2023-02-18T07:31:26;99688.18;;;4.92;97.06
38612;BME280;24368;52.156;20.788;2023-02-18T07:36:28;99667.56;;;4.99;96.54
38612;BME280;24368;52.156;20.788;2023-02-18T07:41:30;99647.30;;;5.03;96.25
38612;BME280;24368;52.156;20.788;2023-02-18T07:46:32;99646.54;;;5.07;95.95
38612;BME280;24368;52.156;20.788;2023-02-18T07:51:33;99655.98;;;5.13;95.42
38612;BME280;24368;52.156;20.788;2023-02-18T07:56:35;99648.04;;;5.18;94.69
38612;BME280;24368;52.156;20.788;2023-02-18T08:01:38;99654.54;;;5.22;94.61
38612;BME280;24368;52.156;20.788;2023-02-18T08:06:43;99664.65;;;5.30;95.01
38612;BME280;24368;52.156;20.788;2023-02-18T08:11:46;99662.05;;;5.26;95.28
38612;BME280;24368;52.156;20.788;2023-02-18T08:16:48;99655.30;;;5.36;93.90
38612;BME280;24368;52.156;20.788;2023-02-18T08:21:50;99662.47;;;5.48;94.41
38612;BME280;24368;52.156;20.788;2023-02-18T08:26:52;99673.45;;;5.52;93.78
38612;BME280;24368;52.156;20.788;2023-02-18T08:31:54;99685.41;;;5.43;94.24
38612;BME280;24368;52.156;20.788;2023-02-18T08:36:57;99672.70;;;5.43;94.61
38612;BME280;24368;52.156;20.788;2023-02-18T08:41:59;99675.16;;;5.43;94.37
38612;BME280;24368;52.156;20.788;2023-02-18T08:47:01;99680.17;;;5.53;93.12
38612;BME280;24368;52.156;20.788;2023-02-18T08:52:03;99684.02;;;5.61;93.10
38612;BME280;24368;52.156;20.788;2023-02-18T08:57:05;99691.83;;;5.59;93.89
38612;BME280;24368;52.156;20.788;2023-02-18T09:02:12;99686.38;;;5.59;93.29
38612;BME280;24368;52.156;20.788;2023-02-18T09:07:14;99689.95;;;5.47;94.31
38612;BME280;24368;52.156;20.788;2023-02-18T09:12:16;99701.45;;;5.50;94.23
38612;BME280;24368;52.156;20.788;2023-02-18T09:17:18;99707.59;;;5.53;92.64
38612;BME280;24368;52.156;20.788;2023-02-18T09:22:20;99711.14;;;5.56;92.27
38612;BME280;24368;52.156;20.788;2023-02-18T09:27:21;99721.07;;;5.47;91.82
38612;BME280;24368;52.156;20.788;2023-02-18T09:32:23;99721.41;;;5.47;92.60
38612;BME280;24368;52.156;20.788;2023-02-18T09:37:25;99735.02;;;5.47;92.26
38612;BME280;24368;52.156;20.788;2023-02-18T09:42:31;99724.79;;;5.52;93.27
38612;BME280;24368;52.156;20.788;2023-02-18T09:47:38;99738.99;;;5.50;93.32
38612;BME280;24368;52.156;20.788;2023-02-18T09:52:41;99731.44;;;5.58;92.83
38612;BME280;24368;52.156;20.788;2023-02-18T09:57:55;99736.85;;;5.60;92.16
38612;BME280;24368;52.156;20.788;2023-02-18T10:03:09;99745.98;;;5.61;89.21
38612;BME280;24368;52.156;20.788;2023-02-18T10:08:33;99755.46;;;5.59;89.69
38612;BME280;24368;52.156;20.788;2023-02-18T10:13:37;99761.34;;;5.64;89.99
38612;BME280;24368;52.156;20.788;2023-02-18T10:18:41;99749.58;;;5.66;90.89
38612;BME280;24368;52.156;20.788;2023-02-18T10:23:56;99745.25;;;5.68;92.21
38612;BME280;24368;52.156;20.788;2023-02-18T10:29:00;99750.96;;;5.69;93.20
38612;BME280;24368;52.156;20.788;2023-02-18T10:44:38;99752.61;;;5.81;92.78
38612;BME280;24368;52.156;20.788;2023-02-18T10:50:00;99743.71;;;5.74;93.05
38612;BME280;24368;52.156;20.788;2023-02-18T10:55:09;99741.61;;;5.72;93.66
38612;BME280;24368;52.156;20.788;2023-02-18T11:00:20;99734.30;;;5.71;93.56
38612;BME280;24368;52.156;20.788;2023-02-18T11:05:26;99735.38;;;5.77;94.30
38612;BME280;24368;52.156;20.788;2023-02-18T11:10:31;99730.63;;;5.77;93.84
38612;BME280;24368;52.156;20.788;2023-02-18T11:15:34;99736.84;;;5.80;93.68
38612;BME280;24368;52.156;20.788;2023-02-18T11:20:37;99730.77;;;5.76;93.32
38612;BME280;24368;52.156;20.788;2023-02-18T11:25:40;99711.74;;;5.71;93.34
38612;BME280;24368;52.156;20.788;2023-02-18T11:30:55;99702.62;;;5.72;93.09
38612;BME280;24368;52.156;20.788;2023-02-18T11:35:58;99693.67;;;5.80;94.08
38612;BME280;24368;52.156;20.788;2023-02-18T11:41:09;99687.75;;;6.01;92.33
38612;BME280;24368;52.156;20.788;2023-02-18T11:46:16;99699.66;;;6.27;90.98
38612;BME280;24368;52.156;20.788;2023-02-18T11:51:25;99687.75;;;6.06;91.30
38612;BME280;24368;52.156;20.788;2023-02-18T11:56:33;99686.46;;;5.98;92.47
38612;BME280;24368;52.156;20.788;2023-02-18T12:01:45;99686.50;;;5.97;92.47
38612;BME280;24368;52.156;20.788;2023-02-18T12:12:25;99665.27;;;6.05;92.26
38612;BME280;24368;52.156;20.788;2023-02-18T12:34:19;99639.86;;;5.95;91.00
38612;BME280;24368;52.156;20.788;2023-02-18T12:45:03;99619.45;;;5.88;92.57
38612;BME280;24368;52.156;20.788;2023-02-18T12:50:14;99619.58;;;6.15;90.11
38612;BME280;24368;52.156;20.788;2023-02-18T13:01:19;99627.19;;;6.15;89.51
38612;BME280;24368;52.156;20.788;2023-02-18T13:06:54;99613.34;;;6.00;90.21
38612;BME280;24368;52.156;20.788;2023-02-18T13:12:03;99606.23;;;6.01;90.65
38612;BME280;24368;52.156;20.788;2023-02-18T13:17:09;99602.80;;;5.97;90.81
38612;BME280;24368;52.156;20.788;2023-02-18T13:22:15;99599.00;;;5.92;91.01
38612;BME280;24368;52.156;20.788;2023-02-18T13:27:28;99594.09;;;5.93;91.06
38612;BME280;24368;52.156;20.788;2023-02-18T13:32:41;99602.73;;;5.94;90.84
38612;BME280;24368;52.156;20.788;2023-02-18T13:42:51;99605.31;;;5.92;91.83
38612;BME280;24368;52.156;20.788;2023-02-18T13:47:54;99608.54;;;5.93;91.48
38612;BME280;24368;52.156;20.788;2023-02-18T13:53:11;99609.70;;;5.92;91.02
38612;BME280;24368;52.156;20.788;2023-02-18T13:58:43;99606.77;;;5.87;92.23
38612;BME280;24368;52.156;20.788;2023-02-18T14:03:54;99597.71;;;5.83;92.55
38612;BME280;24368;52.156;20.788;2023-02-18T14:19:28;99574.77;;;5.82;94.54
38612;BME280;24368;52.156;20.788;2023-02-18T14:24:47;99579.96;;;5.81;95.72
38612;BME280;24368;52.156;20.788;2023-02-18T14:29:51;99567.41;;;5.78;96.21
38612;BME280;24368;52.156;20.788;2023-02-18T14:35:28;99541.83;;;5.76;97.10
38612;BME280;24368;52.156;20.788;2023-02-18T14:46:04;99550.64;;;5.78;96.99
38612;BME280;24368;52.156;20.788;2023-02-18T14:51:09;99561.08;;;5.68;98.01
38612;BME280;24368;52.156;20.788;2023-02-18T14:56:17;99579.14;;;5.40;99.76
38612;BME280;24368;52.156;20.788;2023-02-18T15:01:28;99592.92;;;5.21;99.75
38612;BME280;24368;52.156;20.788;2023-02-18T15:06:33;99587.84;;;4.78;99.95
38612;BME280;24368;52.156;20.788;2023-02-18T15:11:43;99588.94;;;4.58;100.00
38612;BME280;24368;52.156;20.788;2023-02-18T15:16:47;99570.02;;;4.63;100.00
38612;BME280;24368;52.156;20.788;2023-02-18T15:21:54;99563.60;;;4.62;100.00
38612;BME280;24368;52.156;20.788;2023-02-18T15:26:59;99565.91;;;4.56;100.00
38612;BME280;24368;52.156;20.788;2023-02-18T15:32:13;99558.41;;;4.50;100.00
38612;BME280;24368;52.156;20.788;2023-02-18T15:37:16;99545.21;;;4.53;100.00
38612;BME280;24368;52.156;20.788;2023-02-18T15:42:29;99544.03;;;4.51;100.00
38612;BME280;24368;52.156;20.788;2023-02-18T15:47:32;99540.54;;;4.57;100.00
38612;BME280;24368;52.156;20.788;2023-02-18T15:52:37;99540.91;;;4.60;100.00
38612;BME280;24368;52.156;20.788;2023-02-18T15:57:41;99541.39;;;4.53;100.00
38612;BME280;24368;52.156;20.788;2023-02-18T16:03:01;99545.75;;;4.43;100.00
38612;BME280;24368;52.156;20.788;2023-02-18T16:08:12;99535.41;;;4.40;100.00
38612;BME280;24368;52.156;20.788;2023-02-18T16:13:16;99538.02;;;4.36;100.00
38612;BME280;24368;52.156;20.788;2023-02-18T16:18:40;99542.73;;;4.34;100.00
38612;BME280;24368;52.156;20.788;2023-02-18T16:23:54;99549.05;;;4.39;100.00
38612;BME280;24368;52.156;20.788;2023-02-18T16:34:11;99547.60;;;4.38;100.00
38612;BME280;24368;52.156;20.788;2023-02-18T16:39:13;99552.19;;;4.30;100.00
38612;BME280;24368;52.156;20.788;2023-02-18T16:44:15;99544.77;;;4.18;100.00
38612;BME280;24368;52.156;20.788;2023-02-18T16:49:17;99549.11;;;4.11;100.00
38612;BME280;24368;52.156;20.788;2023-02-18T16:54:19;99548.83;;;4.04;100.00
38612;BME280;24368;52.156;20.788;2023-02-18T16:59:21;99546.65;;;4.11;100.00
38612;BME280;24368;52.156;20.788;2023-02-18T17:04:23;99540.83;;;4.02;100.00
38612;BME280;24368;52.156;20.788;2023-02-18T17:09:25;99545.55;;;3.83;100.00
38612;BME280;24368;52.156;20.788;2023-02-18T17:14:28;99542.16;;;3.65;100.00
38612;BME280;24368;52.156;20.788;2023-02-18T17:19:30;99541.40;;;3.60;100.00
38612;BME280;24368;52.156;20.788;2023-02-18T17:24:31;99544.06;;;3.51;100.00
38612;BME280;24368;52.156;20.788;2023-02-18T17:29:33;99543.58;;;3.45;100.00
38612;BME280;24368;52.156;20.788;2023-02-18T17:34:35;99553.53;;;3.53;100.00
38612;BME280;24368;52.156;20.788;2023-02-18T17:39:41;99560.23;;;3.46;100.00
38612;BME280;24368;52.156;20.788;2023-02-18T17:44:43;99565.38;;;3.23;100.00
38612;BME280;24368;52.156;20.788;2023-02-18T17:49:45;99550.94;;;3.21;100.00
38612;BME280;24368;52.156;20.788;2023-02-18T17:54:47;99543.73;;;3.22;100.00
38612;BME280;24368;52.156;20.788;2023-02-18T17:59:48;99541.44;;;3.03;100.00
38612;BME280;24368;52.156;20.788;2023-02-18T18:04:50;99545.29;;;3.03;100.00
38612;BME280;24368;52.156;20.788;2023-02-18T18:09:52;99539.60;;;2.94;100.00
38612;BME280;24368;52.156;20.788;2023-02-18T18:14:54;99532.94;;;3.09;100.00
38612;BME280;24368;52.156;20.788;2023-02-18T18:19:56;99540.00;;;3.08;100.00
38612;BME280;24368;52.156;20.788;2023-02-18T18:24:58;99535.04;;;3.01;100.00
38612;BME280;24368;52.156;20.788;2023-02-18T18:30:00;99531.60;;;3.11;100.00
38612;BME280;24368;52.156;20.788;2023-02-18T18:35:23;99537.02;;;2.98;100.00
38612;BME280;24368;52.156;20.788;2023-02-18T18:40:27;99535.20;;;2.99;100.00
38612;BME280;24368;52.156;20.788;2023-02-18T18:45:34;99537.77;;;2.89;100.00
38612;BME280;24368;52.156;20.788;2023-02-18T18:50:40;99543.04;;;3.01;100.00
38612;BME280;24368;52.156;20.788;2023-02-18T18:55:43;99546.12;;;2.97;100.00
38612;BME280;24368;52.156;20.788;2023-02-18T19:00:47;99542.16;;;2.90;100.00
38612;BME280;24368;52.156;20.788;2023-02-18T19:05:53;99550.27;;;2.87;100.00
38612;BME280;24368;52.156;20.788;2023-02-18T19:10:57;99556.96;;;2.88;100.00
38612;BME280;24368;52.156;20.788;2023-02-18T19:16:03;99578.34;;;2.90;100.00
38612;BME280;24368;52.156;20.788;2023-02-18T19:21:07;99585.21;;;2.81;100.00
38612;BME280;24368;52.156;20.788;2023-02-18T19:26:08;99584.80;;;2.77;100.00
38612;BME280;24368;52.156;20.788;2023-02-18T19:31:10;99591.55;;;2.86;100.00
38612;BME280;24368;52.156;20.788;2023-02-18T19:36:12;99580.00;;;2.96;100.00
38612;BME280;24368;52.156;20.788;2023-02-18T19:41:15;99589.05;;;2.83;100.00
38612;BME280;24368;52.156;20.788;2023-02-18T19:46:17;99593.46;;;2.80;100.00
38612;BME280;24368;52.156;20.788;2023-02-18T19:51:19;99608.40;;;2.80;100.00
38612;BME280;24368;52.156;20.788;2023-02-18T19:56:25;99611.52;;;2.74;100.00
38612;BME280;24368;52.156;20.788;2023-02-18T20:01:27;99605.75;;;2.65;100.00
38612;BME280;24368;52.156;20.788;2023-02-18T20:06:28;99621.33;;;2.62;100.00
38612;BME280;24368;52.156;20.788;2023-02-18T20:11:30;99626.73;;;2.68;100.00
38612;BME280;24368;52.156;20.788;2023-02-18T20:16:32;99633.84;;;2.75;100.00
38612;BME280;24368;52.156;20.788;2023-02-18T20:21:34;99632.06;;;2.64;100.00
38612;BME280;24368;52.156;20.788;2023-02-18T20:26:36;99642.46;;;2.58;100.00
38612;BME280;24368;52.156;20.788;2023-02-18T20:31:38;99658.41;;;2.64;100.00
38612;BME280;24368;52.156;20.788;2023-02-18T20:36:40;99678.50;;;2.78;100.00
38612;BME280;24368;52.156;20.788;2023-02-18T20:41:46;99686.68;;;2.84;100.00
38612;BME280;24368;52.156;20.788;2023-02-18T20:46:48;99692.75;;;2.87;100.00
38612;BME280;24368;52.156;20.788;2023-02-18T20:51:50;99690.53;;;2.84;100.00
38612;BME280;24368;52.156;20.788;2023-02-18T20:56:52;99689.31;;;2.89;100.00
38612;BME280;24368;52.156;20.788;2023-02-18T21:01:55;99700.20;;;2.81;100.00
38612;BME280;24368;52.156;20.788;2023-02-18T21:06:57;99701.93;;;2.81;100.00
38612;BME280;24368;52.156;20.788;2023-02-18T21:11:59;99714.77;;;2.81;100.00
38612;BME280;24368;52.156;20.788;2023-02-18T21:17:01;99718.67;;;2.87;100.00
38612;BME280;24368;52.156;20.788;2023-02-18T21:22:04;99727.02;;;2.85;100.00
38612;BME280;24368;52.156;20.788;2023-02-18T21:27:05;99728.03;;;2.85;100.00
38612;BME280;24368;52.156;20.788;2023-02-18T21:32:07;99736.14;;;2.84;100.00
38612;BME280;24368;52.156;20.788;2023-02-18T21:37:09;99743.85;;;2.90;100.00
38612;BME280;24368;52.156;20.788;2023-02-18T21:42:11;99757.59;;;2.92;100.00
38612;BME280;24368;52.156;20.788;2023-02-18T21:47:13;99771.48;;;2.83;100.00
38612;BME280;24368;52.156;20.788;2023-02-18T21:52:14;99783.55;;;2.76;100.00
38612;BME280;24368;52.156;20.788;2023-02-18T21:57:18;99785.01;;;2.75;100.00
38612;BME280;24368;52.156;20.788;2023-02-18T22:02:25;99796.94;;;2.69;100.00
38612;BME280;24368;52.156;20.788;2023-02-18T22:07:28;99812.33;;;2.63;100.00
38612;BME280;24368;52.156;20.788;2023-02-18T22:12:30;99815.23;;;2.57;100.00
38612;BME280;24368;52.156;20.788;2023-02-18T22:17:33;99809.40;;;2.49;100.00
38612;BME280;24368;52.156;20.788;2023-02-18T22:22:35;99824.44;;;2.37;100.00
38612;BME280;24368;52.156;20.788;2023-02-18T22:27:37;99823.80;;;2.29;100.00
38612;BME280;24368;52.156;20.788;2023-02-18T22:32:38;99833.93;;;2.24;100.00
38612;BME280;24368;52.156;20.788;2023-02-18T22:37:40;99837.95;;;2.14;100.00
38612;BME280;24368;52.156;20.788;2023-02-18T22:42:42;99844.73;;;2.06;100.00
38612;BME280;24368;52.156;20.788;2023-02-18T22:47:44;99850.61;;;1.90;100.00
38612;BME280;24368;52.156;20.788;2023-02-18T22:52:46;99850.61;;;1.93;100.00
38612;BME280;24368;52.156;20.788;2023-02-18T22:57:47;99855.52;;;1.83;100.00
38612;BME280;24368;52.156;20.788;2023-02-18T23:02:50;99858.98;;;1.78;100.00
38612;BME280;24368;52.156;20.788;2023-02-18T23:07:53;99869.55;;;1.81;100.00
38612;BME280;24368;52.156;20.788;2023-02-18T23:12:55;99873.29;;;1.80;100.00
38612;BME280;24368;52.156;20.788;2023-02-18T23:17:56;99884.92;;;1.75;100.00
38612;BME280;24368;52.156;20.788;2023-02-18T23:22:58;99886.90;;;1.76;100.00
38612;BME280;24368;52.156;20.788;2023-02-18T23:28:00;99898.38;;;1.71;100.00
38612;BME280;24368;52.156;20.788;2023-02-18T23:33:02;99894.05;;;1.85;100.00
38612;BME280;24368;52.156;20.788;2023-02-18T23:38:04;99908.38;;;1.84;100.00
38612;BME280;24368;52.156;20.788;2023-02-18T23:43:06;99919.36;;;1.94;100.00
38612;BME280;24368;52.156;20.788;2023-02-18T23:48:07;99915.14;;;2.13;100.00
38612;BME280;24368;52.156;20.788;2023-02-18T23:53:09;99914.94;;;2.21;100.00
38612;BME280;24368;52.156;20.788;2023-02-18T23:58:11;99907.72;;;2.25;100.00
